Main page
METAR-TAF:

METAR-TAF

Airports :

Ras Al Khaimah International Airport

Ras al-Khaimah, United Arab Emirates

latitude: 25-37N, longitude: 055-56E, elevation: 31 m

Current weather observation

The report was made 14 minutes ago, at 21:00 UTC
Wind 2 kt from the Southwest
Temperature 17°C
Humidity 42%
Pressure 1015 hPa
Visibility 10 km or more
no clouds below 1500 m and no cumulonimbus

METAR: OMRK 112100Z 23002KT CAVOK 17/04 Q1015 A2997

Time: 01:14 (21:14 UTC)

Forecast

The report was made 4 hours and 20 minutes ago, at 16:54 UTC
Forecast valid from 11 at 18 UTC to 13 at 00 UTC
Wind 2 kt from variable directions
Visibility 10 km or more
no clouds below 1500 m and no cumulonimbus
Becoming
from 12 at 02 UTC to 12 at 04 UTC
Wind 10 kt from the Southeast
Becoming
from 12 at 09 UTC to 12 at 11 UTC
Wind 10 kt from the North
Becoming
from 12 at 14 UTC to 12 at 16 UTC
Wind 5 kt from the East

TAF: OMRK 111654Z 1118/1300 VRB02KT CAVOK BECMG 1202/1204 14010KT BECMG 1209/1211 35010KT BECMG 1214/1216 09005KT

Weather observations and forecasts of more than 4000 airports (METAR and TAF reports).

The available stations are represented by yellow and red dots on the map.

Hover mouse over dot to see the name of the station.

Then click to see weather observations and forecasts.

To change the map : click on the green buttons with a black cross to zoom in, on the green button with a dash to zoom out, or on the green arrows for adjacent maps.


METAR-TAF: